sensor_id;sensor_type;location;lat;lon;timestamp;temperature;humidity
3705;DHT22;1868;48.918;9.438;2023-03-09T00:01:37;10.90;97.40
3705;DHT22;1868;48.918;9.438;2023-03-09T00:04:08;11.00;97.40
3705;DHT22;1868;48.918;9.438;2023-03-09T00:06:37;11.00;97.40
3705;DHT22;1868;48.918;9.438;2023-03-09T00:09:05;11.00;97.40
3705;DHT22;1868;48.918;9.438;2023-03-09T00:11:35;11.00;97.40
3705;DHT22;1868;48.918;9.438;2023-03-09T00:14:05;11.00;97.40
3705;DHT22;1868;48.918;9.438;2023-03-09T00:16:33;11.10;97.40
3705;DHT22;1868;48.918;9.438;2023-03-09T00:19:01;11.10;97.40
3705;DHT22;1868;48.918;9.438;2023-03-09T00:21:31;11.10;97.40
3705;DHT22;1868;48.918;9.438;2023-03-09T00:24:05;11.10;97.40
3705;DHT22;1868;48.918;9.438;2023-03-09T00:26:36;11.20;97.40
3705;DHT22;1868;48.918;9.438;2023-03-09T00:29:08;11.20;97.40
3705;DHT22;1868;48.918;9.438;2023-03-09T00:31:39;11.20;97.40
3705;DHT22;1868;48.918;9.438;2023-03-09T00:34:07;11.20;97.40
3705;DHT22;1868;48.918;9.438;2023-03-09T00:36:36;11.20;97.40
3705;DHT22;1868;48.918;9.438;2023-03-09T00:39:05;11.20;97.40
3705;DHT22;1868;48.918;9.438;2023-03-09T00:41:33;11.40;97.40
3705;DHT22;1868;48.918;9.438;2023-03-09T00:44:03;11.40;97.40
3705;DHT22;1868;48.918;9.438;2023-03-09T00:46:34;11.30;97.40
3705;DHT22;1868;48.918;9.438;2023-03-09T00:49:03;11.20;97.40
3705;DHT22;1868;48.918;9.438;2023-03-09T00:51:33;11.10;97.40
3705;DHT22;1868;48.918;9.438;2023-03-09T00:54:03;11.00;97.40
3705;DHT22;1868;48.918;9.438;2023-03-09T00:56:32;10.90;97.40
3705;DHT22;1868;48.918;9.438;2023-03-09T00:59:00;10.90;97.40
3705;DHT22;1868;48.918;9.438;2023-03-09T01:01:28;10.90;97.40
3705;DHT22;1868;48.918;9.438;2023-03-09T01:03:58;10.80;97.40
3705;DHT22;1868;48.918;9.438;2023-03-09T01:06:26;10.70;97.40
3705;DHT22;1868;48.918;9.438;2023-03-09T01:08:54;10.70;97.40
3705;DHT22;1868;48.918;9.438;2023-03-09T01:11:23;10.60;97.40
3705;DHT22;1868;48.918;9.438;2023-03-09T01:13:52;10.60;97.40
3705;DHT22;1868;48.918;9.438;2023-03-09T01:16:21;10.60;97.40
3705;DHT22;1868;48.918;9.438;2023-03-09T01:18:49;10.60;97.40
3705;DHT22;1868;48.918;9.438;2023-03-09T01:21:19;10.60;97.40
3705;DHT22;1868;48.918;9.438;2023-03-09T01:23:47;10.60;97.40
3705;DHT22;1868;48.918;9.438;2023-03-09T01:26:15;10.60;97.40
3705;DHT22;1868;48.918;9.438;2023-03-09T01:28:43;10.60;97.40
3705;DHT22;1868;48.918;9.438;2023-03-09T01:31:13;10.60;97.40
3705;DHT22;1868;48.918;9.438;2023-03-09T01:33:43;10.70;97.40
3705;DHT22;1868;48.918;9.438;2023-03-09T01:36:14;10.80;97.40
3705;DHT22;1868;48.918;9.438;2023-03-09T01:38:45;10.80;97.40
3705;DHT22;1868;48.918;9.438;2023-03-09T01:41:15;10.90;97.40
3705;DHT22;1868;48.918;9.438;2023-03-09T01:43:45;10.90;97.40
3705;DHT22;1868;48.918;9.438;2023-03-09T01:46:48;10.90;97.40
3705;DHT22;1868;48.918;9.438;2023-03-09T01:49:23;10.90;97.40
3705;DHT22;1868;48.918;9.438;2023-03-09T01:51:58;10.90;97.40
3705;DHT22;1868;48.918;9.438;2023-03-09T01:54:35;10.90;97.40
3705;DHT22;1868;48.918;9.438;2023-03-09T01:57:12;10.90;97.40
3705;DHT22;1868;48.918;9.438;2023-03-09T01:59:43;10.90;97.40
3705;DHT22;1868;48.918;9.438;2023-03-09T02:02:12;10.80;97.40
3705;DHT22;1868;48.918;9.438;2023-03-09T02:04:44;10.80;97.40
3705;DHT22;1868;48.918;9.438;2023-03-09T02:07:18;10.70;97.40
3705;DHT22;1868;48.918;9.438;2023-03-09T02:09:52;10.70;97.40
3705;DHT22;1868;48.918;9.438;2023-03-09T02:12:22;10.60;97.40
3705;DHT22;1868;48.918;9.438;2023-03-09T02:14:51;10.60;97.40
3705;DHT22;1868;48.918;9.438;2023-03-09T02:17:20;10.60;97.40
3705;DHT22;1868;48.918;9.438;2023-03-09T02:19:57;10.50;97.40
3705;DHT22;1868;48.918;9.438;2023-03-09T02:22:33;10.60;97.40
3705;DHT22;1868;48.918;9.438;2023-03-09T02:25:12;10.60;97.40
3705;DHT22;1868;48.918;9.438;2023-03-09T02:27:46;10.60;97.40
3705;DHT22;1868;48.918;9.438;2023-03-09T02:30:17;10.70;97.40
3705;DHT22;1868;48.918;9.438;2023-03-09T02:32:46;10.70;97.40
3705;DHT22;1868;48.918;9.438;2023-03-09T02:35:14;10.60;97.40
3705;DHT22;1868;48.918;9.438;2023-03-09T02:37:49;10.60;97.40
3705;DHT22;1868;48.918;9.438;2023-03-09T02:40:27;10.60;97.40
3705;DHT22;1868;48.918;9.438;2023-03-09T02:43:00;10.60;97.40
3705;DHT22;1868;48.918;9.438;2023-03-09T02:45:32;10.60;97.40
3705;DHT22;1868;48.918;9.438;2023-03-09T02:48:02;10.60;97.40
3705;DHT22;1868;48.918;9.438;2023-03-09T02:50:30;10.60;97.40
3705;DHT22;1868;48.918;9.438;2023-03-09T02:52:59;10.60;97.40
3705;DHT22;1868;48.918;9.438;2023-03-09T02:55:30;10.60;97.40
3705;DHT22;1868;48.918;9.438;2023-03-09T02:58:01;10.60;97.40
3705;DHT22;1868;48.918;9.438;2023-03-09T03:00:30;10.60;97.40
3705;DHT22;1868;48.918;9.438;2023-03-09T03:02:59;10.60;97.40
3705;DHT22;1868;48.918;9.438;2023-03-09T03:05:29;10.60;97.40
3705;DHT22;1868;48.918;9.438;2023-03-09T03:07:58;10.70;97.40
3705;DHT22;1868;48.918;9.438;2023-03-09T03:10:27;10.60;97.40
3705;DHT22;1868;48.918;9.438;2023-03-09T03:12:55;10.70;97.40
3705;DHT22;1868;48.918;9.438;2023-03-09T03:15:26;10.70;97.40
3705;DHT22;1868;48.918;9.438;2023-03-09T03:17:54;10.60;97.40
3705;DHT22;1868;48.918;9.438;2023-03-09T03:20:23;10.50;97.40
3705;DHT22;1868;48.918;9.438;2023-03-09T03:22:52;10.50;97.40
3705;DHT22;1868;48.918;9.438;2023-03-09T03:25:26;10.40;97.40
3705;DHT22;1868;48.918;9.438;2023-03-09T03:27:58;10.40;97.40
3705;DHT22;1868;48.918;9.438;2023-03-09T03:30:28;10.40;97.40
3705;DHT22;1868;48.918;9.438;2023-03-09T03:32:58;10.40;97.40
3705;DHT22;1868;48.918;9.438;2023-03-09T03:35:30;10.40;97.40
3705;DHT22;1868;48.918;9.438;2023-03-09T03:37:58;10.30;97.40
3705;DHT22;1868;48.918;9.438;2023-03-09T03:40:29;10.40;97.40
3705;DHT22;1868;48.918;9.438;2023-03-09T03:43:01;10.30;97.40
3705;DHT22;1868;48.918;9.438;2023-03-09T03:45:32;10.20;97.40
3705;DHT22;1868;48.918;9.438;2023-03-09T03:48:01;10.10;97.40
3705;DHT22;1868;48.918;9.438;2023-03-09T03:50:32;10.10;97.40
3705;DHT22;1868;48.918;9.438;2023-03-09T03:53:02;10.10;97.40
3705;DHT22;1868;48.918;9.438;2023-03-09T03:55:31;10.00;97.40
3705;DHT22;1868;48.918;9.438;2023-03-09T03:58:01;9.90;97.40
3705;DHT22;1868;48.918;9.438;2023-03-09T04:00:32;9.90;97.40
3705;DHT22;1868;48.918;9.438;2023-03-09T04:03:05;9.90;97.40
3705;DHT22;1868;48.918;9.438;2023-03-09T04:05:38;9.80;97.40
3705;DHT22;1868;48.918;9.438;2023-03-09T04:08:08;9.80;97.40
3705;DHT22;1868;48.918;9.438;2023-03-09T04:10:37;9.80;97.40
3705;DHT22;1868;48.918;9.438;2023-03-09T04:13:08;9.80;97.40
3705;DHT22;1868;48.918;9.438;2023-03-09T04:15:39;9.80;97.40
3705;DHT22;1868;48.918;9.438;2023-03-09T04:18:08;9.80;97.40
3705;DHT22;1868;48.918;9.438;2023-03-09T04:20:37;9.90;97.40
3705;DHT22;1868;48.918;9.438;2023-03-09T04:23:08;9.90;97.40
3705;DHT22;1868;48.918;9.438;2023-03-09T04:25:41;9.90;97.40
3705;DHT22;1868;48.918;9.438;2023-03-09T04:28:09;9.90;97.40
3705;DHT22;1868;48.918;9.438;2023-03-09T04:30:45;9.90;97.40
3705;DHT22;1868;48.918;9.438;2023-03-09T04:33:13;9.90;97.40
3705;DHT22;1868;48.918;9.438;2023-03-09T04:35:42;9.90;97.40
3705;DHT22;1868;48.918;9.438;2023-03-09T04:38:19;9.90;97.40
3705;DHT22;1868;48.918;9.438;2023-03-09T04:40:49;9.90;97.40
3705;DHT22;1868;48.918;9.438;2023-03-09T04:43:17;9.90;97.40
3705;DHT22;1868;48.918;9.438;2023-03-09T04:45:47;9.90;97.40
3705;DHT22;1868;48.918;9.438;2023-03-09T04:48:16;9.90;97.40
3705;DHT22;1868;48.918;9.438;2023-03-09T04:50:45;9.90;97.40
3705;DHT22;1868;48.918;9.438;2023-03-09T04:53:13;10.00;97.40
3705;DHT22;1868;48.918;9.438;2023-03-09T04:55:43;10.00;97.40
3705;DHT22;1868;48.918;9.438;2023-03-09T04:58:13;9.90;97.40
3705;DHT22;1868;48.918;9.438;2023-03-09T05:00:42;10.00;97.40
3705;DHT22;1868;48.918;9.438;2023-03-09T05:03:14;9.90;97.40
3705;DHT22;1868;48.918;9.438;2023-03-09T05:05:47;9.90;97.40
3705;DHT22;1868;48.918;9.438;2023-03-09T05:08:17;9.90;97.40
3705;DHT22;1868;48.918;9.438;2023-03-09T05:10:45;9.90;97.40
3705;DHT22;1868;48.918;9.438;2023-03-09T05:13:15;10.00;97.40
3705;DHT22;1868;48.918;9.438;2023-03-09T05:15:44;10.00;97.40
3705;DHT22;1868;48.918;9.438;2023-03-09T05:18:14;10.00;97.40
3705;DHT22;1868;48.918;9.438;2023-03-09T05:20:42;9.90;97.40
3705;DHT22;1868;48.918;9.438;2023-03-09T05:23:11;10.00;97.40
3705;DHT22;1868;48.918;9.438;2023-03-09T05:25:40;10.00;97.40
3705;DHT22;1868;48.918;9.438;2023-03-09T05:28:10;10.00;97.40
3705;DHT22;1868;48.918;9.438;2023-03-09T05:30:40;10.00;97.40
3705;DHT22;1868;48.918;9.438;2023-03-09T05:33:10;10.00;97.40
3705;DHT22;1868;48.918;9.438;2023-03-09T05:35:41;10.00;97.40
3705;DHT22;1868;48.918;9.438;2023-03-09T05:38:10;9.90;97.40
3705;DHT22;1868;48.918;9.438;2023-03-09T05:40:38;9.80;97.40
3705;DHT22;1868;48.918;9.438;2023-03-09T05:43:08;9.80;97.40
3705;DHT22;1868;48.918;9.438;2023-03-09T05:45:39;9.80;97.40
3705;DHT22;1868;48.918;9.438;2023-03-09T05:48:10;9.70;97.40
3705;DHT22;1868;48.918;9.438;2023-03-09T05:50:39;9.80;97.40
3705;DHT22;1868;48.918;9.438;2023-03-09T05:53:09;9.80;97.40
3705;DHT22;1868;48.918;9.438;2023-03-09T05:55:38;9.80;97.40
3705;DHT22;1868;48.918;9.438;2023-03-09T05:58:09;9.80;97.40
3705;DHT22;1868;48.918;9.438;2023-03-09T06:00:37;9.80;97.40
3705;DHT22;1868;48.918;9.438;2023-03-09T06:03:07;9.80;97.40
3705;DHT22;1868;48.918;9.438;2023-03-09T06:05:45;9.80;97.40
3705;DHT22;1868;48.918;9.438;2023-03-09T06:08:18;9.80;97.40
3705;DHT22;1868;48.918;9.438;2023-03-09T06:10:50;9.80;97.40
3705;DHT22;1868;48.918;9.438;2023-03-09T06:13:20;9.80;97.40
3705;DHT22;1868;48.918;9.438;2023-03-09T06:15:49;9.90;97.40
3705;DHT22;1868;48.918;9.438;2023-03-09T06:18:19;10.00;97.40
3705;DHT22;1868;48.918;9.438;2023-03-09T06:20:49;10.00;97.40
3705;DHT22;1868;48.918;9.438;2023-03-09T06:23:19;10.00;97.40
3705;DHT22;1868;48.918;9.438;2023-03-09T06:25:50;10.00;97.40
3705;DHT22;1868;48.918;9.438;2023-03-09T06:28:20;10.10;97.40
3705;DHT22;1868;48.918;9.438;2023-03-09T06:30:49;10.10;97.40
3705;DHT22;1868;48.918;9.438;2023-03-09T06:33:17;10.20;97.40
3705;DHT22;1868;48.918;9.438;2023-03-09T06:35:51;10.30;97.40
3705;DHT22;1868;48.918;9.438;2023-03-09T06:38:23;10.30;97.40
3705;DHT22;1868;48.918;9.438;2023-03-09T06:40:52;10.30;97.40
3705;DHT22;1868;48.918;9.438;2023-03-09T06:43:23;10.30;97.40
3705;DHT22;1868;48.918;9.438;2023-03-09T06:45:53;10.30;97.40
3705;DHT22;1868;48.918;9.438;2023-03-09T06:48:21;10.40;97.40
3705;DHT22;1868;48.918;9.438;2023-03-09T06:50:50;10.40;97.40
3705;DHT22;1868;48.918;9.438;2023-03-09T06:53:18;10.40;97.40
3705;DHT22;1868;48.918;9.438;2023-03-09T06:55:58;10.50;97.40
3705;DHT22;1868;48.918;9.438;2023-03-09T06:58:32;10.50;97.40
3705;DHT22;1868;48.918;9.438;2023-03-09T07:01:05;10.50;97.40
3705;DHT22;1868;48.918;9.438;2023-03-09T07:03:35;10.50;97.40
3705;DHT22;1868;48.918;9.438;2023-03-09T07:06:05;10.50;97.40
3705;DHT22;1868;48.918;9.438;2023-03-09T07:08:35;10.60;97.40
3705;DHT22;1868;48.918;9.438;2023-03-09T07:11:04;10.60;97.40
3705;DHT22;1868;48.918;9.438;2023-03-09T07:13:32;10.70;97.40
3705;DHT22;1868;48.918;9.438;2023-03-09T07:16:05;10.70;97.40
3705;DHT22;1868;48.918;9.438;2023-03-09T07:18:34;10.80;97.40
3705;DHT22;1868;48.918;9.438;2023-03-09T07:21:03;10.90;97.40
3705;DHT22;1868;48.918;9.438;2023-03-09T07:23:32;10.90;97.40
3705;DHT22;1868;48.918;9.438;2023-03-09T07:26:03;10.90;97.40
3705;DHT22;1868;48.918;9.438;2023-03-09T07:28:32;11.00;97.40
3705;DHT22;1868;48.918;9.438;2023-03-09T07:31:06;11.10;97.40
3705;DHT22;1868;48.918;9.438;2023-03-09T07:33:35;11.20;97.40
3705;DHT22;1868;48.918;9.438;2023-03-09T07:36:04;11.40;97.40
3705;DHT22;1868;48.918;9.438;2023-03-09T07:38:33;11.60;97.40
3705;DHT22;1868;48.918;9.438;2023-03-09T07:41:02;11.70;97.40
3705;DHT22;1868;48.918;9.438;2023-03-09T07:43:31;11.80;97.40
3705;DHT22;1868;48.918;9.438;2023-03-09T07:46:05;11.90;97.40
3705;DHT22;1868;48.918;9.438;2023-03-09T07:48:34;11.90;97.40
3705;DHT22;1868;48.918;9.438;2023-03-09T07:51:05;11.90;97.40
3705;DHT22;1868;48.918;9.438;2023-03-09T07:53:34;11.90;97.40
3705;DHT22;1868;48.918;9.438;2023-03-09T07:56:06;12.00;97.40
3705;DHT22;1868;48.918;9.438;2023-03-09T07:58:36;12.30;97.40
3705;DHT22;1868;48.918;9.438;2023-03-09T08:01:06;12.80;97.40
3705;DHT22;1868;48.918;9.438;2023-03-09T08:03:39;13.10;97.40
3705;DHT22;1868;48.918;9.438;2023-03-09T08:06:07;13.10;97.40
3705;DHT22;1868;48.918;9.438;2023-03-09T08:08:37;13.10;97.40
3705;DHT22;1868;48.918;9.438;2023-03-09T08:11:07;13.20;97.40
3705;DHT22;1868;48.918;9.438;2023-03-09T08:13:35;13.10;97.40
3705;DHT22;1868;48.918;9.438;2023-03-09T08:16:06;13.00;97.40
3705;DHT22;1868;48.918;9.438;2023-03-09T08:18:36;13.10;97.40
3705;DHT22;1868;48.918;9.438;2023-03-09T08:21:05;13.00;97.40
3705;DHT22;1868;48.918;9.438;2023-03-09T08:23:35;13.00;97.40
3705;DHT22;1868;48.918;9.438;2023-03-09T08:26:09;12.90;97.40
3705;DHT22;1868;48.918;9.438;2023-03-09T08:28:38;13.00;97.40
3705;DHT22;1868;48.918;9.438;2023-03-09T08:31:09;13.00;97.40
3705;DHT22;1868;48.918;9.438;2023-03-09T08:33:38;13.10;97.40
3705;DHT22;1868;48.918;9.438;2023-03-09T08:36:11;13.20;97.40
3705;DHT22;1868;48.918;9.438;2023-03-09T08:38:41;13.20;97.40
3705;DHT22;1868;48.918;9.438;2023-03-09T08:41:11;13.20;97.40
3705;DHT22;1868;48.918;9.438;2023-03-09T08:43:39;13.20;97.40
3705;DHT22;1868;48.918;9.438;2023-03-09T08:46:08;13.20;97.40
3705;DHT22;1868;48.918;9.438;2023-03-09T08:48:37;13.20;97.40
3705;DHT22;1868;48.918;9.438;2023-03-09T08:51:07;13.20;97.40
3705;DHT22;1868;48.918;9.438;2023-03-09T08:53:37;13.10;97.40
3705;DHT22;1868;48.918;9.438;2023-03-09T08:56:07;13.10;97.40
3705;DHT22;1868;48.918;9.438;2023-03-09T08:58:38;13.00;97.40
3705;DHT22;1868;48.918;9.438;2023-03-09T09:01:08;12.90;97.40
3705;DHT22;1868;48.918;9.438;2023-03-09T09:03:37;12.70;97.40
3705;DHT22;1868;48.918;9.438;2023-03-09T09:06:07;12.70;97.40
3705;DHT22;1868;48.918;9.438;2023-03-09T09:08:37;12.60;97.40
3705;DHT22;1868;48.918;9.438;2023-03-09T09:11:06;12.50;97.40
3705;DHT22;1868;48.918;9.438;2023-03-09T09:13:35;12.50;97.40
3705;DHT22;1868;48.918;9.438;2023-03-09T09:16:07;12.50;97.40
3705;DHT22;1868;48.918;9.438;2023-03-09T09:18:36;12.30;97.40
3705;DHT22;1868;48.918;9.438;2023-03-09T09:21:09;12.30;97.40
3705;DHT22;1868;48.918;9.438;2023-03-09T09:23:41;12.20;97.40
3705;DHT22;1868;48.918;9.438;2023-03-09T09:26:10;12.10;97.40
3705;DHT22;1868;48.918;9.438;2023-03-09T09:28:39;12.10;97.40
3705;DHT22;1868;48.918;9.438;2023-03-09T09:31:11;12.10;97.40
3705;DHT22;1868;48.918;9.438;2023-03-09T09:33:44;12.20;97.40
3705;DHT22;1868;48.918;9.438;2023-03-09T09:36:15;12.10;97.40
3705;DHT22;1868;48.918;9.438;2023-03-09T09:38:46;12.20;97.40
3705;DHT22;1868;48.918;9.438;2023-03-09T09:41:18;12.30;97.40
3705;DHT22;1868;48.918;9.438;2023-03-09T09:43:50;12.30;97.40
3705;DHT22;1868;48.918;9.438;2023-03-09T09:46:24;12.30;97.40
3705;DHT22;1868;48.918;9.438;2023-03-09T09:48:54;12.30;97.40
3705;DHT22;1868;48.918;9.438;2023-03-09T09:51:50;12.40;97.40
3705;DHT22;1868;48.918;9.438;2023-03-09T09:54:41;12.50;97.40
3705;DHT22;1868;48.918;9.438;2023-03-09T09:57:19;12.50;97.40
3705;DHT22;1868;48.918;9.438;2023-03-09T09:59:55;12.50;97.40
3705;DHT22;1868;48.918;9.438;2023-03-09T10:02:45;12.70;97.40
3705;DHT22;1868;48.918;9.438;2023-03-09T10:05:34;12.80;97.40
3705;DHT22;1868;48.918;9.438;2023-03-09T10:08:22;12.90;97.40
3705;DHT22;1868;48.918;9.438;2023-03-09T10:10:54;13.00;97.40
3705;DHT22;1868;48.918;9.438;2023-03-09T10:13:30;13.10;97.40
3705;DHT22;1868;48.918;9.438;2023-03-09T10:16:05;13.20;97.40
3705;DHT22;1868;48.918;9.438;2023-03-09T10:18:44;13.10;97.40
3705;DHT22;1868;48.918;9.438;2023-03-09T10:21:20;13.10;97.40
3705;DHT22;1868;48.918;9.438;2023-03-09T10:23:53;13.10;97.40
3705;DHT22;1868;48.918;9.438;2023-03-09T10:26:33;13.10;97.40
3705;DHT22;1868;48.918;9.438;2023-03-09T10:29:14;12.90;97.40
3705;DHT22;1868;48.918;9.438;2023-03-09T10:31:50;12.80;97.40
3705;DHT22;1868;48.918;9.438;2023-03-09T10:34:22;12.80;97.40
3705;DHT22;1868;48.918;9.438;2023-03-09T10:36:59;12.80;97.40
3705;DHT22;1868;48.918;9.438;2023-03-09T10:39:34;12.70;97.40
3705;DHT22;1868;48.918;9.438;2023-03-09T10:42:17;12.50;97.40
3705;DHT22;1868;48.918;9.438;2023-03-09T10:44:56;12.50;97.40
3705;DHT22;1868;48.918;9.438;2023-03-09T10:47:51;12.30;97.40
3705;DHT22;1868;48.918;9.438;2023-03-09T10:50:28;12.30;97.40
3705;DHT22;1868;48.918;9.438;2023-03-09T10:52:57;12.30;97.40
3705;DHT22;1868;48.918;9.438;2023-03-09T10:55:45;12.40;97.40
3705;DHT22;1868;48.918;9.438;2023-03-09T10:58:25;12.60;97.40
3705;DHT22;1868;48.918;9.438;2023-03-09T11:00:59;12.90;97.40
3705;DHT22;1868;48.918;9.438;2023-03-09T11:03:37;13.40;97.40
3705;DHT22;1868;48.918;9.438;2023-03-09T11:06:22;14.90;97.40
3705;DHT22;1868;48.918;9.438;2023-03-09T11:08:55;15.60;97.40
3705;DHT22;1868;48.918;9.438;2023-03-09T11:11:42;15.60;97.40
3705;DHT22;1868;48.918;9.438;2023-03-09T11:14:24;15.70;97.40
3705;DHT22;1868;48.918;9.438;2023-03-09T11:16:54;15.90;97.40
3705;DHT22;1868;48.918;9.438;2023-03-09T11:19:24;15.80;96.10
3705;DHT22;1868;48.918;9.438;2023-03-09T11:22:03;16.00;95.40
3705;DHT22;1868;48.918;9.438;2023-03-09T11:24:37;16.70;94.40
3705;DHT22;1868;48.918;9.438;2023-03-09T11:27:09;18.00;92.20
3705;DHT22;1868;48.918;9.438;2023-03-09T11:29:49;18.60;88.60
3705;DHT22;1868;48.918;9.438;2023-03-09T11:32:18;19.40;85.10
3705;DHT22;1868;48.918;9.438;2023-03-09T11:34:48;19.20;82.70
3705;DHT22;1868;48.918;9.438;2023-03-09T11:37:21;19.50;81.00
3705;DHT22;1868;48.918;9.438;2023-03-09T11:39:56;20.30;78.40
3705;DHT22;1868;48.918;9.438;2023-03-09T11:42:32;20.10;77.80
3705;DHT22;1868;48.918;9.438;2023-03-09T11:45:04;20.00;78.40
3705;DHT22;1868;48.918;9.438;2023-03-09T11:47:39;19.10;80.00
3705;DHT22;1868;48.918;9.438;2023-03-09T11:50:14;18.50;82.70
3705;DHT22;1868;48.918;9.438;2023-03-09T11:52:49;18.40;85.60
3705;DHT22;1868;48.918;9.438;2023-03-09T11:55:23;18.40;86.20
3705;DHT22;1868;48.918;9.438;2023-03-09T11:57:59;18.10;86.00
3705;DHT22;1868;48.918;9.438;2023-03-09T12:00:29;17.70;85.50
3705;DHT22;1868;48.918;9.438;2023-03-09T12:03:02;17.70;85.60
3705;DHT22;1868;48.918;9.438;2023-03-09T12:05:42;17.60;85.60
3705;DHT22;1868;48.918;9.438;2023-03-09T12:08:16;18.10;84.30
3705;DHT22;1868;48.918;9.438;2023-03-09T12:10:48;18.70;79.70
3705;DHT22;1868;48.918;9.438;2023-03-09T12:13:21;18.80;80.00
3705;DHT22;1868;48.918;9.438;2023-03-09T12:15:55;18.80;78.70
3705;DHT22;1868;48.918;9.438;2023-03-09T12:18:30;18.80;78.60
3705;DHT22;1868;48.918;9.438;2023-03-09T12:21:01;18.40;80.00
3705;DHT22;1868;48.918;9.438;2023-03-09T12:23:43;18.30;81.00
3705;DHT22;1868;48.918;9.438;2023-03-09T12:26:22;18.40;82.50
3705;DHT22;1868;48.918;9.438;2023-03-09T12:29:14;18.20;83.80
3705;DHT22;1868;48.918;9.438;2023-03-09T12:31:45;18.20;82.50
3705;DHT22;1868;48.918;9.438;2023-03-09T12:35:01;17.70;83.80
3705;DHT22;1868;48.918;9.438;2023-03-09T12:40:48;17.00;86.00
3705;DHT22;1868;48.918;9.438;2023-03-09T12:46:59;16.70;86.20
3705;DHT22;1868;48.918;9.438;2023-03-09T12:49:34;16.70;87.10
3705;DHT22;1868;48.918;9.438;2023-03-09T12:52:33;17.40;85.60
3705;DHT22;1868;48.918;9.438;2023-03-09T12:55:16;17.40;84.30
3705;DHT22;1868;48.918;9.438;2023-03-09T12:57:47;17.30;84.10
3705;DHT22;1868;48.918;9.438;2023-03-09T13:00:28;17.30;86.20
3705;DHT22;1868;48.918;9.438;2023-03-09T13:03:01;17.90;85.60
3705;DHT22;1868;48.918;9.438;2023-03-09T13:05:38;17.50;83.60
3705;DHT22;1868;48.918;9.438;2023-03-09T13:08:25;17.30;85.10
3705;DHT22;1868;48.918;9.438;2023-03-09T13:11:26;16.90;86.00
3705;DHT22;1868;48.918;9.438;2023-03-09T13:13:59;16.50;87.90
3705;DHT22;1868;48.918;9.438;2023-03-09T13:16:51;16.30;89.70
3705;DHT22;1868;48.918;9.438;2023-03-09T13:19:41;16.10;91.50
3705;DHT22;1868;48.918;9.438;2023-03-09T13:22:29;15.80;90.30
3705;DHT22;1868;48.918;9.438;2023-03-09T13:25:40;15.60;90.60
3705;DHT22;1868;48.918;9.438;2023-03-09T13:31:05;15.30;92.10
3705;DHT22;1868;48.918;9.438;2023-03-09T13:33:36;15.10;92.00
3705;DHT22;1868;48.918;9.438;2023-03-09T13:36:22;15.10;92.10
3705;DHT22;1868;48.918;9.438;2023-03-09T13:38:54;15.00;92.40
3705;DHT22;1868;48.918;9.438;2023-03-09T13:41:26;14.90;93.10
3705;DHT22;1868;48.918;9.438;2023-03-09T13:43:55;14.80;93.20
3705;DHT22;1868;48.918;9.438;2023-03-09T13:46:28;14.70;93.50
3705;DHT22;1868;48.918;9.438;2023-03-09T13:49:00;14.60;94.30
3705;DHT22;1868;48.918;9.438;2023-03-09T13:51:43;14.60;95.00
3705;DHT22;1868;48.918;9.438;2023-03-09T13:54:24;14.50;93.60
3705;DHT22;1868;48.918;9.438;2023-03-09T13:57:04;14.60;93.60
3705;DHT22;1868;48.918;9.438;2023-03-09T13:59:46;14.60;93.00
3705;DHT22;1868;48.918;9.438;2023-03-09T14:02:20;14.50;93.50
3705;DHT22;1868;48.918;9.438;2023-03-09T14:04:50;14.40;93.90
3705;DHT22;1868;48.918;9.438;2023-03-09T14:07:22;14.40;93.70
3705;DHT22;1868;48.918;9.438;2023-03-09T14:09:54;14.30;94.40
3705;DHT22;1868;48.918;9.438;2023-03-09T14:12:30;14.30;94.90
3705;DHT22;1868;48.918;9.438;2023-03-09T14:15:03;14.20;96.60
3705;DHT22;1868;48.918;9.438;2023-03-09T14:17:34;14.20;97.40
3705;DHT22;1868;48.918;9.438;2023-03-09T14:20:03;14.20;97.40
3705;DHT22;1868;48.918;9.438;2023-03-09T14:22:32;14.40;97.40
3705;DHT22;1868;48.918;9.438;2023-03-09T14:25:00;14.60;97.40
3705;DHT22;1868;48.918;9.438;2023-03-09T14:27:31;14.60;97.40
3705;DHT22;1868;48.918;9.438;2023-03-09T14:30:32;14.60;97.40
3705;DHT22;1868;48.918;9.438;2023-03-09T14:33:22;14.50;97.40
3705;DHT22;1868;48.918;9.438;2023-03-09T14:36:05;14.60;97.40
3705;DHT22;1868;48.918;9.438;2023-03-09T14:38:37;14.60;97.40
3705;DHT22;1868;48.918;9.438;2023-03-09T14:41:18;14.70;97.40
3705;DHT22;1868;48.918;9.438;2023-03-09T14:43:48;15.30;97.40
3705;DHT22;1868;48.918;9.438;2023-03-09T14:46:18;16.50;95.70
3705;DHT22;1868;48.918;9.438;2023-03-09T14:48:47;17.50;92.90
3705;DHT22;1868;48.918;9.438;2023-03-09T14:51:18;18.20;90.10
3705;DHT22;1868;48.918;9.438;2023-03-09T14:53:56;18.00;89.70
3705;DHT22;1868;48.918;9.438;2023-03-09T14:56:28;17.40;90.10
3705;DHT22;1868;48.918;9.438;2023-03-09T14:59:01;16.90;91.00
3705;DHT22;1868;48.918;9.438;2023-03-09T15:01:38;16.50;92.30
3705;DHT22;1868;48.918;9.438;2023-03-09T15:04:24;16.20;93.50
3705;DHT22;1868;48.918;9.438;2023-03-09T15:06:53;16.00;93.70
3705;DHT22;1868;48.918;9.438;2023-03-09T15:09:22;15.90;93.70
3705;DHT22;1868;48.918;9.438;2023-03-09T15:11:51;15.70;94.10
3705;DHT22;1868;48.918;9.438;2023-03-09T15:14:25;16.30;93.30
3705;DHT22;1868;48.918;9.438;2023-03-09T15:16:58;16.30;92.40
3705;DHT22;1868;48.918;9.438;2023-03-09T15:19:26;16.30;92.80
3705;DHT22;1868;48.918;9.438;2023-03-09T15:21:56;16.30;92.30
3705;DHT22;1868;48.918;9.438;2023-03-09T15:24:26;16.20;92.50
3705;DHT22;1868;48.918;9.438;2023-03-09T15:26:57;16.80;91.60
3705;DHT22;1868;48.918;9.438;2023-03-09T15:29:27;17.40;89.60
3705;DHT22;1868;48.918;9.438;2023-03-09T15:31:55;17.30;89.20
3705;DHT22;1868;48.918;9.438;2023-03-09T15:34:26;17.40;86.90
3705;DHT22;1868;48.918;9.438;2023-03-09T15:36:54;17.60;86.90
3705;DHT22;1868;48.918;9.438;2023-03-09T15:39:22;17.90;85.60
3705;DHT22;1868;48.918;9.438;2023-03-09T15:41:50;17.90;85.60
3705;DHT22;1868;48.918;9.438;2023-03-09T15:44:18;18.20;84.70
3705;DHT22;1868;48.918;9.438;2023-03-09T15:46:48;17.80;83.00
3705;DHT22;1868;48.918;9.438;2023-03-09T15:49:16;17.20;85.30
3705;DHT22;1868;48.918;9.438;2023-03-09T15:51:45;16.90;87.10
3705;DHT22;1868;48.918;9.438;2023-03-09T15:54:13;16.70;89.70
3705;DHT22;1868;48.918;9.438;2023-03-09T15:56:41;16.30;90.10
3705;DHT22;1868;48.918;9.438;2023-03-09T15:59:09;16.00;91.30
3705;DHT22;1868;48.918;9.438;2023-03-09T16:01:37;15.80;91.80
3705;DHT22;1868;48.918;9.438;2023-03-09T16:04:11;15.50;92.10
3705;DHT22;1868;48.918;9.438;2023-03-09T16:06:40;15.40;93.00
3705;DHT22;1868;48.918;9.438;2023-03-09T16:09:09;15.30;93.40
3705;DHT22;1868;48.918;9.438;2023-03-09T16:11:37;15.20;93.80
3705;DHT22;1868;48.918;9.438;2023-03-09T16:14:05;15.00;94.00
3705;DHT22;1868;48.918;9.438;2023-03-09T16:16:34;14.80;94.40
3705;DHT22;1868;48.918;9.438;2023-03-09T16:19:02;14.60;94.60
3705;DHT22;1868;48.918;9.438;2023-03-09T16:21:32;14.60;94.90
3705;DHT22;1868;48.918;9.438;2023-03-09T16:24:00;14.60;94.80
3705;DHT22;1868;48.918;9.438;2023-03-09T16:26:28;14.50;94.70
3705;DHT22;1868;48.918;9.438;2023-03-09T16:28:57;14.50;94.70
3705;DHT22;1868;48.918;9.438;2023-03-09T16:31:26;14.40;94.50
3705;DHT22;1868;48.918;9.438;2023-03-09T16:33:55;14.50;94.50
3705;DHT22;1868;48.918;9.438;2023-03-09T16:36:24;14.60;94.30
3705;DHT22;1868;48.918;9.438;2023-03-09T16:38:54;14.50;94.50
3705;DHT22;1868;48.918;9.438;2023-03-09T16:41:24;14.40;94.50
3705;DHT22;1868;48.918;9.438;2023-03-09T16:43:52;14.30;94.40
3705;DHT22;1868;48.918;9.438;2023-03-09T16:46:22;14.20;94.60
3705;DHT22;1868;48.918;9.438;2023-03-09T16:48:51;14.20;95.00